^^
Saratoga-Weather Station Historical Data
Daily Summary for January 14, 2022 Units:  Metric    English   Both
Daily Weekly Monthly Yearly Custom
  High: Low: Average:
Temperature: 2.7 °C -2.2 °C -0.1 °C
Dew Point: 2.1 °C -2.6 °C -0.6 °C
Humidity: 98% 94% 96%
Wind Speed: 4.7km/h 0km/h 0.1km/h
Wind Gust: 6.4km/h - -
Wind- - ESE
Pressure: 1038.6 hPa 1031.5 hPa -
Precipitation: 0.0 mm    
Historical Graphs
 
 
Tabular Data for January 14, 2022
Time Temperature Dew Point Pressure Wind Wind Speed Wind Gust Humidity Rainfall Rate (Hourly) solar
00:00 -1.1 °C -1.7 °C 1038.6 hPa Calm     96% 0.0 mm 0 W/m2
00:05 -1.1 °C -1.7 °C 1038.6 hPa Calm     96% 0.0 mm 0 W/m2
00:10 -1.1 °C -1.7 °C 1038.6 hPa Calm     96% 0.0 mm 0 W/m2
00:15 -1.1 °C -1.7 °C 1038.3 hPa Calm     96% 0.0 mm 0 W/m2
00:20 -1.1 °C -1.7 °C 1038.3 hPa Calm     96% 0.0 mm 0 W/m2
00:25 -0.9 °C -1.5 °C 1038.3 hPa Calm     96% 0.0 mm 0 W/m2
00:30 -0.9 °C -1.5 °C 1038.3 hPa Calm     96% 0.0 mm 0 W/m2
00:36 -1 °C -1.6 °C 1038.3 hPa Calm     96% 0.0 mm 0 W/m2
00:41 -1.1 °C -1.7 °C 1038.3 hPa Calm     96% 0.0 mm 0 W/m2
00:46 -1.1 °C -1.7 °C 1038.3 hPa Calm     96% 0.0 mm 0 W/m2
00:51 -1.2 °C -1.8 °C 1038.3 hPa Calm     96% 0.0 mm 0 W/m2
00:56 -1.2 °C -1.8 °C 1038.3 hPa Calm     96% 0.0 mm 0 W/m2
01:01 -1.2 °C -1.8 °C 1038.3 hPa Calm     96% 0.0 mm 0 W/m2
01:06 -1.2 °C -1.8 °C 1038.3 hPa Calm     96% 0.0 mm 0 W/m2
01:11 -1.2 °C -1.8 °C 1037.9 hPa Calm     96% 0.0 mm 0 W/m2
01:16 -1.3 °C -1.9 °C 1037.9 hPa Calm     96% 0.0 mm 0 W/m2
01:21 -1.3 °C -1.9 °C 1037.9 hPa Calm     96% 0.0 mm 0 W/m2
01:26 -1.3 °C -1.9 °C 1037.9 hPa Calm     96% 0.0 mm 0 W/m2
01:31 -1.3 °C -1.9 °C 1037.9 hPa Calm     96% 0.0 mm 0 W/m2
01:36 -1.3 °C -1.9 °C 1037.9 hPa Calm     96% 0.0 mm 0 W/m2
01:41 -1.4 °C -2 °C 1037.9 hPa Calm     96% 0.0 mm 0 W/m2
01:46 -1.3 °C -1.9 °C 1037.9 hPa Calm     96% 0.0 mm 0 W/m2
01:51 -1.3 °C -1.9 °C 1037.6 hPa Calm     96% 0.0 mm 0 W/m2
01:56 -1.3 °C -1.7 °C 1037.6 hPa Calm     97% 0.0 mm 0 W/m2
02:01 -1.3 °C -1.7 °C 1037.6 hPa Calm     97% 0.0 mm 0 W/m2
02:06 -1.3 °C -1.7 °C 1037.6 hPa Calm     97% 0.0 mm 0 W/m2
02:11 -1.3 °C -1.7 °C 1037.6 hPa Calm     97% 0.0 mm 0 W/m2
02:16 -1.3 °C -1.7 °C 1037.6 hPa Calm     97% 0.0 mm 0 W/m2
02:21 -1.3 °C -1.7 °C 1037.6 hPa Calm     97% 0.0 mm 0 W/m2
02:26 -1.3 °C -1.7 °C 1037.6 hPa Calm     97% 0.0 mm 0 W/m2
02:31 -1.2 °C -1.6 °C 1037.6 hPa Calm     97% 0.0 mm 0 W/m2
02:36 -1.2 °C -1.6 °C 1037.2 hPa Calm     97% 0.0 mm 0 W/m2
02:41 -1.2 °C -1.6 °C 1037.2 hPa Calm     97% 0.0 mm 0 W/m2
02:46 -1.2 °C -1.6 °C 1037.2 hPa Calm     97% 0.0 mm 0 W/m2
02:51 -1.2 °C -1.6 °C 1037.2 hPa Calm     97% 0.0 mm 0 W/m2
02:56 -1.3 °C -1.7 °C 1037.2 hPa Calm     97% 0.0 mm 0 W/m2
03:01 -1.3 °C -1.7 °C 1037.2 hPa Calm     97% 0.0 mm 0 W/m2
03:06 -1.3 °C -1.7 °C 1037.2 hPa Calm     97% 0.0 mm 0 W/m2
03:11 -1.3 °C -1.9 °C 1037.2 hPa Calm     96% 0.0 mm 0 W/m2
03:16 -1.3 °C -1.7 °C 1037.2 hPa Calm     97% 0.0 mm 0 W/m2
03:21 -1.3 °C -1.9 °C 1037.2 hPa Calm     96% 0.0 mm 0 W/m2
03:26 -1.3 °C -1.9 °C 1037.2 hPa Calm     96% 0.0 mm 0 W/m2
03:31 -1.4 °C -2 °C 1037.2 hPa Calm     96% 0.0 mm 0 W/m2
03:36 -1.4 °C -2 °C 1036.9 hPa Calm     96% 0.0 mm 0 W/m2
03:41 -1.4 °C -2 °C 1037.2 hPa Calm     96% 0.0 mm 0 W/m2
03:46 -1.4 °C -2 °C 1037.2 hPa Calm     96% 0.0 mm 0 W/m2
03:51 -1.4 °C -2 °C 1036.9 hPa Calm     96% 0.0 mm 0 W/m2
03:56 -1.5 °C -1.9 °C 1036.9 hPa Calm     97% 0.0 mm 0 W/m2
04:01 -1.6 °C -2 °C 1036.9 hPa Calm     97% 0.0 mm 0 W/m2
04:06 -1.6 °C -2 °C 1036.9 hPa Calm     97% 0.0 mm 0 W/m2
04:12 -1.6 °C -2 °C 1036.9 hPa Calm     97% 0.0 mm 0 W/m2
04:17 -1.6 °C -2 °C 1036.9 hPa Calm     97% 0.0 mm 0 W/m2
04:22 -1.5 °C -1.9 °C 1036.9 hPa Calm     97% 0.0 mm 0 W/m2
04:27 -1.6 °C -2 °C 1036.9 hPa Calm     97% 0.0 mm 0 W/m2
04:32 -1.6 °C -2 °C 1036.9 hPa Calm     97% 0.0 mm 0 W/m2
04:37 -1.6 °C -2.2 °C 1036.9 hPa Calm     96% 0.0 mm 0 W/m2
04:42 -1.6 °C -2.2 °C 1036.9 hPa Calm     96% 0.0 mm 0 W/m2
04:47 -1.6 °C -2.2 °C 1036.9 hPa Calm     96% 0.0 mm 0 W/m2
04:52 -1.6 °C -2.2 °C 1036.9 hPa Calm     96% 0.0 mm 0 W/m2
04:57 -1.6 °C -2.2 °C 1036.9 hPa Calm     96% 0.0 mm 0 W/m2
05:02 -1.6 °C -2 °C 1036.9 hPa Calm     97% 0.0 mm 0 W/m2
05:07 -1.5 °C -1.9 °C 1036.9 hPa Calm     97% 0.0 mm 0 W/m2
05:12 -1.5 °C -1.9 °C 1036.6 hPa Calm     97% 0.0 mm 0 W/m2
05:17 -1.5 °C -1.9 °C 1036.6 hPa Calm     97% 0.0 mm 0 W/m2
05:22 -1.6 °C -2 °C 1036.6 hPa Calm     97% 0.0 mm 0 W/m2
05:27 -1.6 °C -2 °C 1036.6 hPa Calm     97% 0.0 mm 0 W/m2
05:32 -1.7 °C -2.1 °C 1036.6 hPa Calm     97% 0.0 mm 0 W/m2
05:37 -1.7 °C -2.3 °C 1036.6 hPa Calm     96% 0.0 mm 0 W/m2
05:42 -1.8 °C -2.2 °C 1036.6 hPa Calm     97% 0.0 mm 0 W/m2
05:47 -1.8 °C -2.2 °C 1036.6 hPa Calm     97% 0.0 mm 0 W/m2
05:52 -1.8 °C -2.2 °C 1036.6 hPa Calm     97% 0.0 mm 0 W/m2
05:57 -1.8 °C -2.2 °C 1036.6 hPa Calm     97% 0.0 mm 0 W/m2
06:02 -1.8 °C -2.2 °C 1036.6 hPa Calm     97% 0.0 mm 0 W/m2
06:07 -1.8 °C -2.2 °C 1036.6 hPa Calm     97% 0.0 mm 0 W/m2
06:12 -1.8 °C -2.2 °C 1036.6 hPa Calm     97% 0.0 mm 0 W/m2
06:17 -1.8 °C -2.2 °C 1036.6 hPa Calm     97% 0.0 mm 0 W/m2
06:22 -1.8 °C -2.2 °C 1036.2 hPa Calm     97% 0.0 mm 0 W/m2
06:27 -1.8 °C -2.2 °C 1036.6 hPa Calm     97% 0.0 mm 0 W/m2
06:32 -1.8 °C -2.2 °C 1036.6 hPa Calm     97% 0.0 mm 0 W/m2
06:37 -1.8 °C -2.2 °C 1036.6 hPa Calm     97% 0.0 mm 0 W/m2
06:42 -1.8 °C -2.2 °C 1036.6 hPa Calm   1.6 km/h 97% 0.0 mm 0 W/m2
06:47 -1.7 °C -2.1 °C 1036.6 hPa Calm     97% 0.0 mm 0 W/m2
06:52 -1.7 °C -2.1 °C 1036.6 hPa Calm     97% 0.0 mm 0 W/m2
06:57 -1.6 °C -2 °C 1036.6 hPa Calm     97% 0.0 mm 0 W/m2
07:02 -1.6 °C -2 °C 1036.6 hPa Calm     97% 0.0 mm 0 W/m2
07:08 -1.6 °C -2 °C 1036.6 hPa Calm     97% 0.0 mm 0 W/m2
07:13 -1.5 °C -1.9 °C 1036.6 hPa Calm     97% 0.0 mm 0 W/m2
07:18 -1.5 °C -1.9 °C 1036.6 hPa Calm     97% 0.0 mm 0 W/m2
07:23 -1.4 °C -1.8 °C 1036.6 hPa Calm     97% 0.0 mm 0 W/m2
07:28 -1.5 °C -1.9 °C 1036.6 hPa Calm     97% 0.0 mm 0 W/m2
07:33 -1.6 °C -2 °C 1036.6 hPa Calm     97% 0.0 mm 0 W/m2
07:38 -1.7 °C -2.1 °C 1036.6 hPa Calm     97% 0.0 mm 0 W/m2
07:43 -1.7 °C -2.1 °C 1036.6 hPa Calm     97% 0.0 mm 0 W/m2
07:48 -1.8 °C -2.2 °C 1036.2 hPa Calm     97% 0.0 mm 0 W/m2
07:53 -1.8 °C -2.2 °C 1036.2 hPa Calm     97% 0.0 mm 0 W/m2
07:58 -1.9 °C -2.3 °C 1036.2 hPa Calm   3.2 km/h 97% 0.0 mm 0 W/m2
08:03 -1.8 °C -2.2 °C 1036.2 hPa Calm     97% 0.0 mm 0 W/m2
08:08 -1.8 °C -2.2 °C 1036.2 hPa Calm     97% 0.0 mm 0 W/m2
08:13 -1.9 °C -2.3 °C 1036.2 hPa Calm     97% 0.0 mm 0 W/m2
08:18 -1.9 °C -2.3 °C 1036.2 hPa Calm     97% 0.0 mm 0 W/m2
08:23 -2 °C -2.4 °C 1036.6 hPa Calm     97% 0.0 mm 0 W/m2
08:28 -2.1 °C -2.5 °C 1036.2 hPa Calm     97% 0.0 mm 5 W/m2
08:33 -2.1 °C -2.5 °C 1036.2 hPa Calm     97% 0.0 mm 5 W/m2
08:38 -2.1 °C -2.5 °C 1036.6 hPa Calm     97% 0.0 mm 7 W/m2
08:43 -2.1 °C -2.5 °C 1036.6 hPa Calm     97% 0.0 mm 9 W/m2
08:48 -2.1 °C -2.5 °C 1036.6 hPa Calm     97% 0.0 mm 11 W/m2
08:53 -2.1 °C -2.5 °C 1036.6 hPa Calm     97% 0.0 mm 11 W/m2
08:58 -2.2 °C -2.6 °C 1036.6 hPa Calm     97% 0.0 mm 12 W/m2
09:03 -2.2 °C -2.6 °C 1036.6 hPa Calm     97% 0.0 mm 14 W/m2
09:08 -2.2 °C -2.6 °C 1036.6 hPa Calm     97% 0.0 mm 14 W/m2
09:13 -2.2 °C -2.6 °C 1036.6 hPa Calm     97% 0.0 mm 16 W/m2
09:18 -2.2 °C -2.6 °C 1036.6 hPa Calm     97% 0.0 mm 16 W/m2
09:23 -2.2 °C -2.6 °C 1036.6 hPa Calm     97% 0.0 mm 18 W/m2
09:28 -2.2 °C -2.6 °C 1036.6 hPa Calm     97% 0.0 mm 21 W/m2
09:33 -2.1 °C -2.5 °C 1036.6 hPa Calm     97% 0.0 mm 21 W/m2
09:38 -2 °C -2.4 °C 1036.6 hPa Calm     97% 0.0 mm 21 W/m2
09:43 -2 °C -2.4 °C 1036.6 hPa Calm     97% 0.0 mm 21 W/m2
09:48 -1.9 °C -2.3 °C 1036.6 hPa Calm     97% 0.0 mm 21 W/m2
09:53 -1.9 °C -2.3 °C 1036.6 hPa Calm     97% 0.0 mm 23 W/m2
09:58 -1.9 °C -2.3 °C 1036.6 hPa Calm     97% 0.0 mm 25 W/m2
10:03 -1.8 °C -2.2 °C 1036.6 hPa Calm     97% 0.0 mm 25 W/m2
10:08 -1.8 °C -2.2 °C 1036.6 hPa Calm     97% 0.0 mm 25 W/m2
10:13 -1.7 °C -2.1 °C 1036.6 hPa Calm     97% 0.0 mm 25 W/m2
10:18 -1.6 °C -2 °C 1036.6 hPa Calm     97% 0.0 mm 25 W/m2
10:23 -1.4 °C -1.8 °C 1036.6 hPa Calm     97% 0.0 mm 25 W/m2
10:28 -1.3 °C -1.7 °C 1036.6 hPa Calm     97% 0.0 mm 28 W/m2
10:33 -1.3 °C -1.7 °C 1036.6 hPa Calm     97% 0.0 mm 25 W/m2
10:38 -1.2 °C -1.6 °C 1036.6 hPa Calm     97% 0.0 mm 23 W/m2
10:43 -1.1 °C -1.5 °C 1036.6 hPa Calm     97% 0.0 mm 30 W/m2
10:48 -1 °C -1.4 °C 1036.6 hPa Calm     97% 0.0 mm 28 W/m2
10:53 -0.8 °C -1.2 °C 1036.6 hPa Calm     97% 0.0 mm 25 W/m2
10:58 -0.8 °C -1.2 °C 1036.6 hPa SSW 1.4 km/h 1.6 km/h 97% 0.0 mm 25 W/m2
11:03 -0.7 °C -1.1 °C 1036.6 hPa Calm     97% 0.0 mm 25 W/m2
11:08 -0.6 °C -1 °C 1036.6 hPa Calm     97% 0.0 mm 25 W/m2
11:13 -0.4 °C -0.8 °C 1036.9 hPa Calm     97% 0.0 mm 25 W/m2
11:18 -0.3 °C -0.7 °C 1036.9 hPa Calm     97% 0.0 mm 26 W/m2
11:23 -0.2 °C -0.6 °C 1036.6 hPa Calm     97% 0.0 mm 25 W/m2
11:28 -0.2 °C -0.6 °C 1036.6 hPa Calm     97% 0.0 mm 23 W/m2
11:33 -0.1 °C -0.5 °C 1036.6 hPa Calm     97% 0.0 mm 23 W/m2
11:38 0 °C -0.4 °C 1036.6 hPa Calm   1.6 km/h 97% 0.0 mm 28 W/m2
11:43 0.1 °C -0.3 °C 1036.6 hPa Calm     97% 0.0 mm 25 W/m2
11:48 0.2 °C -0.2 °C 1036.2 hPa Calm   1.6 km/h 97% 0.0 mm 25 W/m2
11:53 0.3 °C -0.1 °C 1036.2 hPa Calm   1.6 km/h 97% 0.0 mm 25 W/m2
11:58 0.5 °C 0.1 °C 1036.2 hPa Calm   1.6 km/h 97% 0.0 mm 25 W/m2
12:03 0.6 °C 0.2 °C 1036.2 hPa Calm   1.6 km/h 97% 0.0 mm 25 W/m2
12:08 0.7 °C 0.3 °C 1036.2 hPa Calm     97% 0.0 mm 25 W/m2
12:13 0.8 °C 0.4 °C 1036.2 hPa Calm     97% 0.0 mm 25 W/m2
12:18 0.9 °C 0.5 °C 1035.9 hPa Calm     97% 0.0 mm 25 W/m2
12:23 1 °C 0.6 °C 1035.9 hPa Calm     97% 0.0 mm 25 W/m2
12:28 1.2 °C 0.8 °C 1035.9 hPa NE 3.2 km/h 4.8 km/h 97% 0.0 mm 25 W/m2
12:33 1.4 °C 1.1 °C 1035.9 hPa Calm   1.6 km/h 98% 0.0 mm 25 W/m2
12:38 1.6 °C 1.3 °C 1035.9 hPa ENE 4.7 km/h 6.4 km/h 98% 0.0 mm 26 W/m2
12:43 1.8 °C 1.4 °C 1035.9 hPa East 1.4 km/h 3.2 km/h 97% 0.0 mm 30 W/m2
12:48 1.8 °C 1.5 °C 1035.6 hPa Calm   6.4 km/h 98% 0.0 mm 26 W/m2
12:53 1.8 °C 1.5 °C 1035.6 hPa Calm   3.2 km/h 98% 0.0 mm 26 W/m2
12:58 1.9 °C 1.5 °C 1035.6 hPa ESE 1.4 km/h 1.6 km/h 97% 0.0 mm 26 W/m2
13:03 2 °C 1.6 °C 1035.6 hPa Calm     97% 0.0 mm 37 W/m2
13:08 2 °C 1.6 °C 1035.6 hPa ESE 1.4 km/h 3.2 km/h 97% 0.0 mm 28 W/m2
13:13 2.1 °C 1.7 °C 1035.6 hPa Calm     97% 0.0 mm 30 W/m2
13:18 2.2 °C 1.8 °C 1035.6 hPa Calm     97% 0.0 mm 28 W/m2
13:23 2.3 °C 1.9 °C 1035.6 hPa East 1.4 km/h 3.2 km/h 97% 0.0 mm 26 W/m2
13:28 2.4 °C 2 °C 1035.2 hPa Calm     97% 0.0 mm 26 W/m2
13:33 2.4 °C 2 °C 1035.2 hPa Calm     97% 0.0 mm 30 W/m2
13:38 2.4 °C 2 °C 1035.2 hPa Calm     97% 0.0 mm 26 W/m2
13:43 2.4 °C 2 °C 1034.9 hPa Calm     97% 0.0 mm 25 W/m2
13:48 2.4 °C 2 °C 1034.9 hPa Calm     97% 0.0 mm 25 W/m2
13:53 2.4 °C 2 °C 1034.9 hPa Calm     97% 0.0 mm 25 W/m2
13:58 2.4 °C 2 °C 1034.5 hPa Calm     97% 0.0 mm 33 W/m2
14:03 2.4 °C 2 °C 1034.5 hPa Calm     97% 0.0 mm 25 W/m2
14:08 2.4 °C 2 °C 1034.5 hPa Calm     97% 0.0 mm 25 W/m2
14:13 2.4 °C 2 °C 1034.5 hPa Calm     97% 0.0 mm 25 W/m2
14:19 2.4 °C 2 °C 1034.5 hPa Calm     97% 0.0 mm 25 W/m2
14:24 2.5 °C 1.9 °C 1034.5 hPa Calm     96% 0.0 mm 23 W/m2
14:29 2.5 °C 2.1 °C 1034.5 hPa Calm     97% 0.0 mm 23 W/m2
14:34 2.5 °C 1.9 °C 1034.5 hPa Calm     96% 0.0 mm 23 W/m2
14:39 2.5 °C 1.9 °C 1034.5 hPa Calm     96% 0.0 mm 23 W/m2
14:44 2.6 °C 2 °C 1034.2 hPa East 1.4 km/h 3.2 km/h 96% 0.0 mm 21 W/m2
14:49 2.6 °C 2 °C 1034.2 hPa East 3.2 km/h 3.2 km/h 96% 0.0 mm 21 W/m2
14:54 2.6 °C 2 °C 1034.2 hPa Calm     96% 0.0 mm 21 W/m2
14:59 2.6 °C 2 °C 1034.2 hPa Calm     96% 0.0 mm 21 W/m2
15:04 2.6 °C 2 °C 1034.2 hPa Calm     96% 0.0 mm 19 W/m2
15:09 2.6 °C 2 °C 1034.2 hPa Calm   1.6 km/h 96% 0.0 mm 19 W/m2
15:14 2.6 °C 2 °C 1034.2 hPa ESE 1.4 km/h 3.2 km/h 96% 0.0 mm 19 W/m2
15:19 2.5 °C 1.9 °C 1034.2 hPa Calm   3.2 km/h 96% 0.0 mm 19 W/m2
15:24 2.6 °C 2 °C 1034.2 hPa ESE 1.4 km/h 3.2 km/h 96% 0.0 mm 19 W/m2
15:29 2.5 °C 1.9 °C 1034.2 hPa Calm     96% 0.0 mm 19 W/m2
15:34 2.5 °C 1.9 °C 1034.2 hPa Calm     96% 0.0 mm 18 W/m2
15:39 2.5 °C 1.9 °C 1034.2 hPa Calm     96% 0.0 mm 18 W/m2
15:44 2.5 °C 1.9 °C 1033.9 hPa ESE 3.2 km/h 3.2 km/h 96% 0.0 mm 18 W/m2
15:49 2.6 °C 2 °C 1033.9 hPa ESE 1.4 km/h 3.2 km/h 96% 0.0 mm 16 W/m2
15:54 2.6 °C 2 °C 1033.9 hPa Calm   1.6 km/h 96% 0.0 mm 16 W/m2
15:59 2.6 °C 2 °C 1033.9 hPa Calm   3.2 km/h 96% 0.0 mm 16 W/m2
16:04 2.7 °C 2 °C 1033.9 hPa Calm     95% 0.0 mm 14 W/m2
16:09 2.7 °C 2 °C 1033.9 hPa Calm   3.2 km/h 95% 0.0 mm 14 W/m2
16:14 2.7 °C 2 °C 1033.9 hPa Calm     95% 0.0 mm 14 W/m2
16:19 2.6 °C 1.9 °C 1033.9 hPa Calm     95% 0.0 mm 12 W/m2
16:24 2.7 °C 2 °C 1033.9 hPa Calm     95% 0.0 mm 12 W/m2
16:29 2.7 °C 2 °C 1033.5 hPa Calm     95% 0.0 mm 12 W/m2
16:34 2.7 °C 2 °C 1033.5 hPa Calm     95% 0.0 mm 11 W/m2
16:39 2.7 °C 2 °C 1033.5 hPa Calm     95% 0.0 mm 11 W/m2
16:44 2.7 °C 2 °C 1033.5 hPa Calm     95% 0.0 mm 9 W/m2
16:49 2.7 °C 2 °C 1033.5 hPa Calm     95% 0.0 mm 7 W/m2
16:54 2.6 °C 1.9 °C 1033.5 hPa Calm     95% 0.0 mm 7 W/m2
16:59 2.6 °C 1.9 °C 1033.5 hPa Calm     95% 0.0 mm 5 W/m2
17:04 2.6 °C 1.9 °C 1033.5 hPa Calm     95% 0.0 mm 5 W/m2
17:09 2.6 °C 1.9 °C 1033.5 hPa Calm     95% 0.0 mm 0 W/m2
17:14 2.6 °C 1.9 °C 1033.5 hPa Calm     95% 0.0 mm 0 W/m2
17:19 2.6 °C 1.9 °C 1033.5 hPa Calm     95% 0.0 mm 0 W/m2
17:24 2.6 °C 1.9 °C 1033.2 hPa Calm     95% 0.0 mm 0 W/m2
17:29 2.5 °C 1.8 °C 1033.5 hPa Calm     95% 0.0 mm 0 W/m2
17:34 2.4 °C 1.5 °C 1033.2 hPa Calm     94% 0.0 mm 0 W/m2
17:39 2.4 °C 1.5 °C 1033.2 hPa Calm     94% 0.0 mm 0 W/m2
17:44 2.3 °C 1.4 °C 1033.2 hPa Calm     94% 0.0 mm 0 W/m2
17:49 2.3 °C 1.4 °C 1033.2 hPa Calm     94% 0.0 mm 0 W/m2
17:54 2.3 °C 1.4 °C 1033.2 hPa Calm     94% 0.0 mm 0 W/m2
17:59 2.2 °C 1.3 °C 1033.2 hPa Calm     94% 0.0 mm 0 W/m2
18:04 2.2 °C 1.3 °C 1033.2 hPa Calm     94% 0.0 mm 0 W/m2
18:09 2.1 °C 1.2 °C 1033.2 hPa Calm     94% 0.0 mm 0 W/m2
18:14 2.1 °C 1.2 °C 1033.2 hPa Calm     94% 0.0 mm 0 W/m2
18:19 2 °C 1.1 °C 1033.2 hPa Calm     94% 0.0 mm 0 W/m2
18:24 1.9 °C 1 °C 1033.2 hPa Calm     94% 0.0 mm 0 W/m2
18:29 1.8 °C 1.1 °C 1033.2 hPa Calm     95% 0.0 mm 0 W/m2
18:34 1.8 °C 0.9 °C 1033.2 hPa Calm     94% 0.0 mm 0 W/m2
18:39 1.7 °C 0.8 °C 1033.2 hPa Calm     94% 0.0 mm 0 W/m2
18:44 1.6 °C 0.7 °C 1032.8 hPa Calm     94% 0.0 mm 0 W/m2
18:49 1.5 °C 0.6 °C 1032.8 hPa Calm     94% 0.0 mm 0 W/m2
18:54 1.4 °C 0.5 °C 1032.8 hPa Calm     94% 0.0 mm 0 W/m2
18:59 1.3 °C 0.6 °C 1032.8 hPa Calm     95% 0.0 mm 0 W/m2
19:04 1.3 °C 0.6 °C 1032.8 hPa Calm     95% 0.0 mm 0 W/m2
19:09 1.3 °C 0.6 °C 1032.8 hPa Calm     95% 0.0 mm 0 W/m2
19:14 1.3 °C 0.6 °C 1033.2 hPa Calm     95% 0.0 mm 0 W/m2
19:19 1.3 °C 0.6 °C 1033.2 hPa Calm     95% 0.0 mm 0 W/m2
19:24 1.2 °C 0.5 °C 1033.2 hPa Calm     95% 0.0 mm 0 W/m2
19:29 1.2 °C 0.5 °C 1032.8 hPa Calm     95% 0.0 mm 0 W/m2
19:34 1.1 °C 0.4 °C 1032.8 hPa Calm     95% 0.0 mm 0 W/m2
19:39 1 °C 0.3 °C 1032.8 hPa Calm     95% 0.0 mm 0 W/m2
19:44 0.9 °C 0.2 °C 1032.8 hPa Calm     95% 0.0 mm 0 W/m2
19:49 0.9 °C 0.2 °C 1032.8 hPa Calm     95% 0.0 mm 0 W/m2
19:54 0.8 °C 0.1 °C 1032.8 hPa Calm     95% 0.0 mm 0 W/m2
19:59 0.7 °C 0 °C 1032.8 hPa Calm     95% 0.0 mm 0 W/m2
20:04 0.6 °C -0.1 °C 1032.8 hPa Calm     95% 0.0 mm 0 W/m2
20:09 0.6 °C -0.1 °C 1032.8 hPa Calm     95% 0.0 mm 0 W/m2
20:14 0.5 °C -0.2 °C 1032.8 hPa Calm     95% 0.0 mm 0 W/m2
20:19 0.4 °C -0.3 °C 1032.8 hPa Calm     95% 0.0 mm 0 W/m2
20:24 0.3 °C -0.4 °C 1032.8 hPa Calm     95% 0.0 mm 0 W/m2
20:29 0.3 °C -0.4 °C 1032.8 hPa Calm     95% 0.0 mm 0 W/m2
20:34 0.3 °C -0.4 °C 1032.8 hPa Calm     95% 0.0 mm 0 W/m2
20:39 0.2 °C -0.5 °C 1032.8 hPa Calm     95% 0.0 mm 0 W/m2
20:44 0.2 °C -0.5 °C 1032.8 hPa Calm     95% 0.0 mm 0 W/m2
20:49 0.1 °C -0.6 °C 1032.5 hPa Calm     95% 0.0 mm 0 W/m2
20:54 0.1 °C -0.6 °C 1032.5 hPa Calm     95% 0.0 mm 0 W/m2
21:00 0.1 °C -0.6 °C 1032.5 hPa Calm     95% 0.0 mm 0 W/m2
21:05 0.1 °C -0.5 °C 1032.5 hPa Calm     96% 0.0 mm 0 W/m2
21:10 0.1 °C -0.5 °C 1032.5 hPa Calm     96% 0.0 mm 0 W/m2
21:15 0.1 °C -0.5 °C 1032.2 hPa Calm     96% 0.0 mm 0 W/m2
21:20 0.2 °C -0.4 °C 1032.2 hPa Calm     96% 0.0 mm 0 W/m2
21:25 0.2 °C -0.4 °C 1032.2 hPa Calm     96% 0.0 mm 0 W/m2
21:30 0.2 °C -0.4 °C 1032.2 hPa Calm     96% 0.0 mm 0 W/m2
21:35 0.2 °C -0.4 °C 1032.2 hPa Calm     96% 0.0 mm 0 W/m2
21:40 0.2 °C -0.4 °C 1032.2 hPa Calm     96% 0.0 mm 0 W/m2
21:45 0.1 °C -0.5 °C 1032.2 hPa Calm     96% 0.0 mm 0 W/m2
21:50 -0.1 °C -0.7 °C 1031.8 hPa Calm     96% 0.0 mm 0 W/m2
21:55 -0.1 °C -0.7 °C 1031.8 hPa Calm     96% 0.0 mm 0 W/m2
22:00 -0.1 °C -0.7 °C 1031.8 hPa Calm     96% 0.0 mm 0 W/m2
22:05 -0.2 °C -0.8 °C 1031.8 hPa Calm     96% 0.0 mm 0 W/m2
22:10 -0.2 °C -0.8 °C 1031.8 hPa Calm     96% 0.0 mm 0 W/m2
22:15 -0.3 °C -0.9 °C 1031.8 hPa Calm     96% 0.0 mm 0 W/m2
22:20 -0.4 °C -1 °C 1031.8 hPa Calm     96% 0.0 mm 0 W/m2
22:25 -0.5 °C -1.1 °C 1031.8 hPa Calm     96% 0.0 mm 0 W/m2
22:30 -0.6 °C -1.2 °C 1031.8 hPa Calm     96% 0.0 mm 0 W/m2
22:35 -0.7 °C -1.4 °C 1031.8 hPa Calm     95% 0.0 mm 0 W/m2
22:40 -0.8 °C -1.4 °C 1031.8 hPa Calm     96% 0.0 mm 0 W/m2
22:45 -0.8 °C -1.4 °C 1031.8 hPa Calm     96% 0.0 mm 0 W/m2
22:50 -0.8 °C -1.4 °C 1031.8 hPa Calm     96% 0.0 mm 0 W/m2
22:55 -0.8 °C -1.4 °C 1031.8 hPa Calm     96% 0.0 mm 0 W/m2
23:00 -0.8 °C -1.4 °C 1031.8 hPa Calm     96% 0.0 mm 0 W/m2
23:05 -0.8 °C -1.4 °C 1031.8 hPa Calm     96% 0.0 mm 0 W/m2
23:10 -0.8 °C -1.4 °C 1031.8 hPa Calm     96% 0.0 mm 0 W/m2
23:15 -0.8 °C -1.4 °C 1031.8 hPa Calm     96% 0.0 mm 0 W/m2
23:20 -0.8 °C -1.4 °C 1031.8 hPa Calm     96% 0.0 mm 0 W/m2
23:25 -0.8 °C -1.4 °C 1031.8 hPa Calm     96% 0.0 mm 0 W/m2
23:30 -0.9 °C -1.5 °C 1031.8 hPa Calm     96% 0.0 mm 0 W/m2
23:35 -0.9 °C -1.5 °C 1031.5 hPa Calm     96% 0.0 mm 0 W/m2
23:40 -0.9 °C -1.5 °C 1031.5 hPa Calm     96% 0.0 mm 0 W/m2
23:45 -0.9 °C -1.5 °C 1031.5 hPa Calm     96% 0.0 mm 0 W/m2
23:50 -0.8 °C -1.4 °C 1031.5 hPa Calm     96% 0.0 mm 0 W/m2
23:55 -0.8 °C -1.4 °C 1031.5 hPa Calm     96% 0.0 mm 0 W/m2
Juneau County Weather
Compliments of Weather Underground - 4 mb